createdAt,value
2023-03-27T00:02:24.758Z,18.05
2023-03-27T00:05:28.453Z,14.95
2023-03-27T00:08:32.686Z,14.73
2023-03-27T00:11:36.158Z,11.05
2023-03-27T00:14:40.192Z,12.23
2023-03-27T00:17:47.736Z,12.48
2023-03-27T00:20:52.082Z,10.10
2023-03-27T00:23:56.007Z,9.77
2023-03-27T00:26:59.988Z,10.35
2023-03-27T00:30:06.360Z,11.10
2023-03-27T00:33:13.392Z,9.20
2023-03-27T00:36:16.842Z,10.02
2023-03-27T00:39:20.979Z,11.45
2023-03-27T00:42:25.628Z,11.65
2023-03-27T00:45:35.054Z,9.77
2023-03-27T00:48:40.336Z,12.52
2023-03-27T00:51:48.698Z,14.13
2023-03-27T00:54:52.593Z,12.75
2023-03-27T00:58:04.869Z,14.48
2023-03-27T01:01:13.802Z,13.10
2023-03-27T01:04:21.370Z,13.52
2023-03-27T01:07:25.949Z,12.70
2023-03-27T01:10:48.284Z,15.93
2023-03-27T01:14:13.312Z,13.13
2023-03-27T01:17:42.088Z,12.88
2023-03-27T01:21:47.950Z,13.40
2023-03-27T01:25:38.122Z,12.33
2023-03-27T01:28:56.359Z,15.63
2023-03-27T01:32:41.621Z,12.48
2023-03-27T01:36:26.013Z,15.40
2023-03-27T01:39:50.518Z,11.55
2023-03-27T01:43:06.498Z,11.32
2023-03-27T01:46:24.181Z,14.32
2023-03-27T01:49:40.151Z,16.35
2023-03-27T01:52:54.929Z,13.05
2023-03-27T01:56:08.320Z,14.05
2023-03-27T01:59:17.765Z,16.60
2023-03-27T02:02:30.009Z,13.60
2023-03-27T02:05:40.029Z,17.23
2023-03-27T02:08:52.026Z,15.37
2023-03-27T02:12:07.480Z,15.48
2023-03-27T02:15:23.391Z,16.10
2023-03-27T02:18:36.670Z,14.40
2023-03-27T02:21:40.303Z,17.00
2023-03-27T02:24:44.749Z,14.57
2023-03-27T02:27:59.520Z,15.80
2023-03-27T02:31:33.061Z,16.90
2023-03-27T02:35:08.389Z,13.07
2023-03-27T02:38:25.274Z,14.98
2023-03-27T02:41:39.175Z,17.83
2023-03-27T02:44:52.511Z,16.13
2023-03-27T02:48:08.380Z,14.52
2023-03-27T02:51:22.463Z,14.52
2023-03-27T02:54:34.001Z,14.73
2023-03-27T02:57:40.131Z,15.73
2023-03-27T03:01:13.775Z,18.70
2023-03-27T03:04:46.210Z,21.57
2023-03-27T03:07:54.405Z,20.35
2023-03-27T03:11:06.027Z,19.35
2023-03-27T03:14:10.445Z,17.63
2023-03-27T03:17:17.642Z,19.75
2023-03-27T03:20:22.031Z,18.98
2023-03-27T03:23:26.394Z,17.08
2023-03-27T03:26:31.014Z,16.80
2023-03-27T03:29:37.494Z,17.60
2023-03-27T03:33:02.812Z,21.05
2023-03-27T03:36:09.088Z,29.00
2023-03-27T03:39:16.759Z,26.05
2023-03-27T03:42:24.213Z,28.77
2023-03-27T03:45:30.752Z,26.13
2023-03-27T03:48:36.464Z,27.33
2023-03-27T03:51:40.068Z,24.92
2023-03-27T03:54:46.553Z,21.67
2023-03-27T03:57:50.567Z,23.73
2023-03-27T04:01:03.289Z,18.92
2023-03-27T04:04:15.956Z,23.88
2023-03-27T04:07:39.957Z,22.37
2023-03-27T04:10:57.305Z,24.63
2023-03-27T04:14:19.976Z,29.38
2023-03-27T04:17:27.228Z,33.83
2023-03-27T04:20:34.713Z,33.13
2023-03-27T04:23:40.458Z,34.40
2023-03-27T04:26:44.594Z,33.90
2023-03-27T04:29:57.093Z,31.10
2023-03-27T04:33:39.259Z,27.20
2023-03-27T04:37:07.154Z,30.35
2023-03-27T04:40:15.608Z,21.33
2023-03-27T04:43:19.352Z,18.58
2023-03-27T04:46:23.751Z,19.17
2023-03-27T04:49:38.654Z,21.10
2023-03-27T04:52:58.706Z,21.60
2023-03-27T04:56:07.232Z,19.92
2023-03-27T04:59:15.610Z,20.38
2023-03-27T05:02:21.506Z,19.20
2023-03-27T05:05:30.579Z,19.25
2023-03-27T05:08:35.985Z,24.75
2023-03-27T05:11:40.020Z,25.50
2023-03-27T05:14:48.652Z,28.98
2023-03-27T05:18:09.090Z,23.23
2023-03-27T05:21:13.540Z,22.20
2023-03-27T05:24:19.572Z,25.20
2023-03-27T05:27:24.076Z,21.25
2023-03-27T05:30:31.738Z,23.10
2023-03-27T05:33:47.699Z,21.85
2023-03-27T05:36:51.812Z,23.42
2023-03-27T05:39:56.984Z,17.60
2023-03-27T05:43:01.103Z,15.40
2023-03-27T05:46:07.775Z,16.42
2023-03-27T05:49:12.938Z,20.73
2023-03-27T05:52:17.634Z,17.07
2023-03-27T05:55:26.996Z,14.98
2023-03-27T05:58:32.356Z,17.40
2023-03-27T06:01:40.058Z,16.00
2023-03-27T06:04:43.818Z,13.00
2023-03-27T06:07:52.711Z,13.73
2023-03-27T06:10:57.855Z,16.42
2023-03-27T06:14:09.769Z,15.03
2023-03-27T06:17:28.298Z,17.27
2023-03-27T06:20:38.015Z,14.98
2023-03-27T06:23:41.903Z,12.93
2023-03-27T06:26:52.766Z,15.10
2023-03-27T06:29:56.918Z,12.68
2023-03-27T06:33:02.985Z,17.08
2023-03-27T06:36:08.716Z,15.70
2023-03-27T06:39:14.113Z,16.40
2023-03-27T06:42:26.168Z,14.77
2023-03-27T06:45:53.815Z,16.17
2023-03-27T06:49:23.774Z,17.13
2023-03-27T06:52:28.668Z,14.85
2023-03-27T06:55:45.610Z,13.90
2023-03-27T06:58:51.538Z,12.80
2023-03-27T07:01:58.354Z,16.67
2023-03-27T07:05:28.534Z,15.10
2023-03-27T07:08:32.431Z,19.95
2023-03-27T07:11:36.809Z,17.25
2023-03-27T07:14:46.245Z,19.45
2023-03-27T07:17:55.525Z,16.07
2023-03-27T07:21:00.051Z,14.65
2023-03-27T07:24:08.628Z,16.27
2023-03-27T07:27:14.071Z,13.43
2023-03-27T07:30:20.344Z,11.40
2023-03-27T07:33:24.197Z,10.73
2023-03-27T07:36:28.812Z,10.25
2023-03-27T07:39:52.689Z,12.20
2023-03-27T07:43:02.320Z,7.35
2023-03-27T07:46:08.089Z,10.23
2023-03-27T07:49:13.449Z,9.83
2023-03-27T07:52:16.987Z,6.97
2023-03-27T07:55:33.030Z,6.32
2023-03-27T07:58:42.882Z,5.83
2023-03-27T08:01:50.654Z,9.43
2023-03-27T08:04:56.378Z,7.90
2023-03-27T08:08:01.377Z,5.38
2023-03-27T08:11:30.716Z,8.75
2023-03-27T08:14:35.585Z,10.23
2023-03-27T08:17:53.893Z,10.70
2023-03-27T08:21:03.900Z,9.07
2023-03-27T08:24:09.724Z,12.45
2023-03-27T08:27:33.984Z,11.43
2023-03-27T08:30:38.573Z,7.67
2023-03-27T08:33:44.316Z,7.60
2023-03-27T08:36:55.715Z,8.23
2023-03-27T08:40:13.990Z,8.85
2023-03-27T08:43:26.681Z,11.02
2023-03-27T08:46:40.002Z,8.95
2023-03-27T08:49:53.545Z,10.07
2023-03-27T08:53:04.609Z,10.80
2023-03-27T08:56:16.047Z,9.10
2023-03-27T08:59:26.379Z,7.82
2023-03-27T09:02:45.927Z,5.43
2023-03-27T09:06:00.423Z,9.85
2023-03-27T09:09:19.977Z,4.85
2023-03-27T09:12:45.954Z,3.72
2023-03-27T09:15:59.561Z,8.00
2023-03-27T09:19:17.019Z,6.18
2023-03-27T09:22:28.427Z,5.68
2023-03-27T09:25:56.366Z,3.80
2023-03-27T09:29:40.763Z,4.75
2023-03-27T09:33:07.327Z,5.00
2023-03-27T09:36:11.509Z,5.90
2023-03-27T09:39:22.532Z,6.13
2023-03-27T09:42:43.563Z,6.03
2023-03-27T09:45:53.907Z,4.75
2023-03-27T09:49:02.751Z,4.78
2023-03-27T09:52:07.956Z,3.08
2023-03-27T09:55:30.647Z,4.72
2023-03-27T09:58:43.969Z,4.87
2023-03-27T10:01:50.716Z,3.13
2023-03-27T10:05:01.460Z,4.82
2023-03-27T10:08:38.355Z,2.47
2023-03-27T10:11:50.379Z,3.13
2023-03-27T10:15:01.451Z,5.00
2023-03-27T10:18:27.181Z,4.85
2023-03-27T10:21:44.003Z,3.47
2023-03-27T10:25:00.425Z,5.47
2023-03-27T10:28:31.871Z,4.45
2023-03-27T10:31:53.373Z,4.57
2023-03-27T10:35:29.303Z,3.20
2023-03-27T10:38:56.265Z,3.63
2023-03-27T10:42:22.863Z,5.13
2023-03-27T10:45:29.581Z,2.95
2023-03-27T10:48:49.724Z,2.90
2023-03-27T10:52:14.421Z,3.65
2023-03-27T10:55:48.625Z,3.92
2023-03-27T10:59:01.750Z,1.95
2023-03-27T11:02:21.698Z,1.90
2023-03-27T11:05:34.845Z,2.10
2023-03-27T11:09:05.876Z,2.97
2023-03-27T11:12:15.519Z,3.38
2023-03-27T11:15:39.848Z,4.30
2023-03-27T11:19:31.151Z,2.78
2023-03-27T11:23:03.152Z,2.28
2023-03-27T11:26:20.561Z,2.40
2023-03-27T11:29:33.330Z,2.70
2023-03-27T11:32:49.851Z,3.35
2023-03-27T11:36:06.500Z,2.33
2023-03-27T11:39:33.289Z,5.30
2023-03-27T11:42:44.680Z,2.45
2023-03-27T11:46:06.877Z,2.13
2023-03-27T11:49:36.343Z,2.40
2023-03-27T11:53:02.292Z,5.30
2023-03-27T11:56:52.107Z,2.38
2023-03-27T12:00:25.484Z,2.33
2023-03-27T12:04:13.357Z,2.40
2023-03-27T12:08:00.161Z,2.75
2023-03-27T12:11:12.382Z,2.95
2023-03-27T12:14:46.679Z,2.63
2023-03-27T12:18:13.392Z,3.33
2023-03-27T12:21:46.586Z,4.85
2023-03-27T12:25:24.388Z,3.50
2023-03-27T12:29:23.358Z,4.03
2023-03-27T12:33:12.138Z,3.08
2023-03-27T12:36:24.279Z,3.97
2023-03-27T12:39:30.075Z,2.40
2023-03-27T12:42:52.855Z,2.97
2023-03-27T12:46:17.525Z,2.23
2023-03-27T12:49:48.175Z,3.17
2023-03-27T12:53:05.819Z,2.30
2023-03-27T12:56:37.304Z,6.10
2023-03-27T12:59:55.028Z,2.70
2023-03-27T13:03:43.788Z,2.65
2023-03-27T13:06:58.030Z,2.15
2023-03-27T13:10:36.906Z,3.45
2023-03-27T13:14:22.224Z,3.83
2023-03-27T13:17:48.978Z,3.17
2023-03-27T13:21:09.925Z,4.97
2023-03-27T13:24:37.767Z,3.93
2023-03-27T13:28:16.709Z,4.80
2023-03-27T13:32:31.025Z,3.83
2023-03-27T13:36:14.543Z,3.93
2023-03-27T13:39:24.724Z,2.50
2023-03-27T13:42:46.218Z,4.00
2023-03-27T13:45:54.055Z,1.90
2023-03-27T13:49:34.642Z,2.50
2023-03-27T13:53:17.811Z,3.00
2023-03-27T13:57:00.389Z,8.75
2023-03-27T14:00:47.344Z,3.05
2023-03-27T14:04:29.330Z,3.63
2023-03-27T14:08:08.616Z,4.53
2023-03-27T14:11:59.302Z,3.40
2023-03-27T14:15:54.484Z,3.67
2023-03-27T14:19:40.026Z,3.42
2023-03-27T14:22:57.108Z,4.20
2023-03-27T14:26:14.507Z,4.43
2023-03-27T14:29:21.329Z,3.53
2023-03-27T14:32:30.299Z,3.03
2023-03-27T14:35:37.554Z,4.72
2023-03-27T14:38:44.483Z,2.83
2023-03-27T14:41:53.379Z,4.17
2023-03-27T14:45:20.589Z,2.28
2023-03-27T14:48:31.809Z,2.57
2023-03-27T14:51:42.303Z,2.03
2023-03-27T14:54:57.856Z,2.67
2023-03-27T14:58:18.402Z,3.37
2023-03-27T15:01:26.220Z,3.55
2023-03-27T15:04:35.915Z,4.25
2023-03-27T15:07:48.841Z,3.13
2023-03-27T15:11:01.888Z,2.90
2023-03-27T15:14:32.203Z,3.00
2023-03-27T15:17:39.076Z,4.68
2023-03-27T15:20:44.625Z,2.60
2023-03-27T15:24:02.031Z,3.15
2023-03-27T15:27:08.473Z,2.50
2023-03-27T15:30:28.289Z,3.03
2023-03-27T15:33:42.659Z,2.22
2023-03-27T15:36:52.518Z,3.05
2023-03-27T15:40:41.823Z,2.40
2023-03-27T15:43:46.730Z,3.65
2023-03-27T15:46:56.220Z,3.05
2023-03-27T15:50:22.494Z,4.38
2023-03-27T15:53:37.838Z,2.20
2023-03-27T15:56:44.763Z,1.65
2023-03-27T15:59:51.856Z,3.08
2023-03-27T16:02:57.811Z,2.10
2023-03-27T16:06:05.329Z,3.35
2023-03-27T16:09:25.808Z,2.13
2023-03-27T16:12:34.377Z,2.90
2023-03-27T16:15:41.867Z,5.18
2023-03-27T16:18:47.617Z,5.90
2023-03-27T16:21:58.715Z,4.13
2023-03-27T16:25:04.886Z,3.70
2023-03-27T16:28:12.451Z,2.47
2023-03-27T16:31:20.082Z,5.07
2023-03-27T16:34:23.952Z,4.10
2023-03-27T16:37:29.399Z,4.70
2023-03-27T16:40:33.240Z,4.00
2023-03-27T16:43:36.782Z,3.30
2023-03-27T16:46:41.009Z,5.05
2023-03-27T16:49:51.119Z,6.03
2023-03-27T16:53:02.288Z,3.33
2023-03-27T16:56:07.113Z,2.93
2023-03-27T16:59:11.407Z,4.68
2023-03-27T17:02:15.128Z,6.07
2023-03-27T17:05:19.511Z,4.27
2023-03-27T17:08:24.656Z,4.78
2023-03-27T17:11:28.738Z,4.60
2023-03-27T17:14:32.240Z,5.32
2023-03-27T17:17:36.004Z,4.57
2023-03-27T17:20:39.554Z,3.80
2023-03-27T17:23:48.330Z,4.07
2023-03-27T17:26:51.855Z,10.30
2023-03-27T17:29:56.785Z,7.18
2023-03-27T17:33:00.719Z,5.82
2023-03-27T17:36:09.915Z,9.63
2023-03-27T17:39:15.007Z,7.97
2023-03-27T17:42:19.038Z,8.57
2023-03-27T17:45:23.785Z,7.05
2023-03-27T17:48:28.042Z,7.63
2023-03-27T17:51:31.599Z,8.18
2023-03-27T17:54:37.127Z,9.88
2023-03-27T17:57:41.582Z,11.30
2023-03-27T18:00:46.020Z,11.13
2023-03-27T18:03:51.829Z,8.13
2023-03-27T18:06:56.151Z,7.55
2023-03-27T18:10:01.520Z,6.63
2023-03-27T18:13:05.741Z,7.15
2023-03-27T18:16:10.997Z,7.78
2023-03-27T18:19:15.377Z,9.03
2023-03-27T18:22:18.993Z,8.55
2023-03-27T18:25:25.009Z,10.98
2023-03-27T18:28:28.730Z,7.93
2023-03-27T18:31:32.902Z,7.00
2023-03-27T18:34:36.576Z,6.97
2023-03-27T18:37:40.981Z,11.00
2023-03-27T18:40:45.853Z,7.55
2023-03-27T18:43:50.225Z,10.10
2023-03-27T18:46:54.203Z,8.65
2023-03-27T18:49:58.859Z,12.10
2023-03-27T18:53:02.402Z,7.45
2023-03-27T18:56:09.083Z,12.68
2023-03-27T18:59:14.378Z,8.73
2023-03-27T19:02:19.485Z,10.30
2023-03-27T19:05:23.339Z,10.55
2023-03-27T19:08:27.381Z,8.82
2023-03-27T19:11:32.667Z,8.25
2023-03-27T19:15:20.313Z,6.47
2023-03-27T19:18:42.820Z,7.18
2023-03-27T19:22:12.812Z,10.50
2023-03-27T19:25:23.906Z,6.35
2023-03-27T19:28:29.072Z,6.97
2023-03-27T19:31:32.733Z,6.80
2023-03-27T19:34:42.973Z,5.70
2023-03-27T19:37:47.264Z,7.93
2023-03-27T19:40:51.363Z,7.20
2023-03-27T19:43:57.756Z,7.13
2023-03-27T19:47:03.854Z,9.48
2023-03-27T19:50:09.583Z,7.88
2023-03-27T19:53:23.435Z,7.90
2023-03-27T19:56:27.466Z,9.27
2023-03-27T19:59:32.814Z,8.13
2023-03-27T20:02:37.016Z,9.80
2023-03-27T20:05:41.790Z,5.63
2023-03-27T20:08:46.005Z,8.98
2023-03-27T20:11:53.367Z,11.25
2023-03-27T20:15:11.039Z,7.78
2023-03-27T20:18:22.197Z,11.10
2023-03-27T20:21:26.386Z,7.13
2023-03-27T20:24:30.260Z,8.17
2023-03-27T20:27:36.248Z,9.60
2023-03-27T20:30:43.027Z,11.38
2023-03-27T20:33:47.525Z,12.43
2023-03-27T20:36:53.124Z,9.60
2023-03-27T20:40:20.158Z,15.02
2023-03-27T20:43:24.007Z,12.27
2023-03-27T20:46:30.488Z,12.82
2023-03-27T20:49:41.134Z,17.88
2023-03-27T20:52:46.168Z,17.95
2023-03-27T20:55:59.346Z,11.73
2023-03-27T20:59:03.480Z,18.58
2023-03-27T21:02:08.681Z,13.30
2023-03-27T21:05:12.335Z,21.57
2023-03-27T21:08:16.822Z,15.85
2023-03-27T21:11:20.611Z,20.70
2023-03-27T21:14:25.044Z,16.27
2023-03-27T21:17:30.070Z,16.55
2023-03-27T21:20:35.347Z,18.52
2023-03-27T21:23:39.512Z,22.15
2023-03-27T21:26:43.652Z,16.23
2023-03-27T21:29:47.265Z,19.70
2023-03-27T21:32:52.633Z,17.83
2023-03-27T21:35:56.230Z,15.77
2023-03-27T21:39:00.267Z,19.10
2023-03-27T21:42:03.833Z,11.52
2023-03-27T21:45:09.530Z,13.55
2023-03-27T21:48:14.522Z,13.15
2023-03-27T21:51:18.586Z,14.75
2023-03-27T21:54:22.451Z,9.18
2023-03-27T21:57:26.511Z,11.23
2023-03-27T22:00:30.344Z,16.02
2023-03-27T22:03:35.636Z,9.57
2023-03-27T22:06:39.136Z,12.43
2023-03-27T22:09:45.399Z,12.30
2023-03-27T22:12:48.959Z,12.00
2023-03-27T22:15:52.765Z,12.90
2023-03-27T22:18:57.771Z,13.63
2023-03-27T22:22:01.571Z,11.93
2023-03-27T22:25:06.475Z,12.25
2023-03-27T22:28:10.758Z,15.83
2023-03-27T22:31:14.639Z,12.32
2023-03-27T22:34:19.848Z,12.50
2023-03-27T22:37:24.715Z,10.63
2023-03-27T22:40:28.904Z,13.13
2023-03-27T22:43:32.604Z,11.25
2023-03-27T22:46:36.685Z,14.73
2023-03-27T22:49:41.967Z,11.40
2023-03-27T22:52:45.712Z,12.57
2023-03-27T22:55:50.493Z,14.10
2023-03-27T22:58:54.504Z,11.67
2023-03-27T23:01:58.383Z,12.77
2023-03-27T23:05:04.282Z,11.80
2023-03-27T23:08:07.945Z,15.03
2023-03-27T23:11:14.898Z,12.30
2023-03-27T23:14:18.756Z,11.73
2023-03-27T23:17:22.592Z,16.67
2023-03-27T23:20:28.340Z,14.43
2023-03-27T23:23:35.311Z,12.43
2023-03-27T23:26:39.150Z,14.18
2023-03-27T23:29:42.918Z,15.53
2023-03-27T23:32:46.640Z,10.80
2023-03-27T23:35:52.907Z,11.73
2023-03-27T23:38:56.913Z,11.07
2023-03-27T23:42:01.244Z,11.48
2023-03-27T23:45:05.707Z,11.55
2023-03-27T23:48:09.783Z,13.20
2023-03-27T23:51:17.114Z,10.88
2023-03-27T23:54:21.207Z,9.32
2023-03-27T23:57:25.532Z,8.88
